createdAt,value
2019-04-29T00:00:53.681Z,1.10
2019-04-29T00:03:22.432Z,1.20
2019-04-29T00:05:51.133Z,1.90
2019-04-29T00:08:19.857Z,1.20
2019-04-29T00:10:48.557Z,1.13
2019-04-29T00:13:17.483Z,1.00
2019-04-29T00:15:56.149Z,1.10
2019-04-29T00:18:31.027Z,1.00
2019-04-29T00:20:59.739Z,2.30
2019-04-29T00:23:28.398Z,1.10
2019-04-29T00:25:57.322Z,1.07
2019-04-29T00:28:26.102Z,1.20
2019-04-29T00:30:54.936Z,1.60
2019-04-29T00:33:23.788Z,3.00
2019-04-29T00:35:52.597Z,1.40
2019-04-29T00:38:42.030Z,2.13
2019-04-29T00:41:28.115Z,1.23
2019-04-29T00:44:01.543Z,1.00
2019-04-29T00:46:30.424Z,1.37
2019-04-29T00:49:00.434Z,1.20
2019-04-29T00:51:29.115Z,1.20
2019-04-29T00:54:02.999Z,1.37
2019-04-29T00:56:31.689Z,1.80
2019-04-29T00:59:00.589Z,1.53
2019-04-29T01:01:29.650Z,1.50
2019-04-29T01:03:58.329Z,1.90
2019-04-29T01:06:27.038Z,1.20
2019-04-29T01:08:55.726Z,1.40
2019-04-29T01:11:24.543Z,1.30
2019-04-29T01:13:53.077Z,1.40
2019-04-29T01:16:22.018Z,1.40
2019-04-29T01:18:50.666Z,1.40
2019-04-29T01:21:19.447Z,1.40
2019-04-29T01:23:48.183Z,1.40
2019-04-29T01:26:36.467Z,1.50
2019-04-29T01:29:07.249Z,1.40
2019-04-29T01:31:36.141Z,1.30
2019-04-29T01:34:11.513Z,1.37
2019-04-29T01:36:42.082Z,1.30
2019-04-29T01:39:12.297Z,2.20
2019-04-29T01:42:15.806Z,1.93
2019-04-29T01:44:44.605Z,1.30
2019-04-29T01:47:13.262Z,1.07
2019-04-29T01:49:42.056Z,1.30
2019-04-29T01:52:10.593Z,1.33
2019-04-29T01:54:39.392Z,1.40
2019-04-29T01:57:09.019Z,1.47
2019-04-29T01:59:37.749Z,1.30
2019-04-29T02:02:06.546Z,1.40
2019-04-29T02:04:35.327Z,1.87
2019-04-29T02:07:04.083Z,1.30
2019-04-29T02:09:48.370Z,1.97
2019-04-29T02:12:16.969Z,2.13
2019-04-29T02:14:45.849Z,1.60
2019-04-29T02:17:14.502Z,1.40
2019-04-29T02:19:43.174Z,1.40
2019-04-29T02:22:33.851Z,1.40
2019-04-29T02:25:09.706Z,1.73
2019-04-29T02:27:38.412Z,1.50
2019-04-29T02:30:07.488Z,1.47
2019-04-29T02:32:36.276Z,1.60
2019-04-29T02:35:06.018Z,1.60
2019-04-29T02:37:37.879Z,1.50
2019-04-29T02:40:13.277Z,1.70
2019-04-29T02:43:01.082Z,1.43
2019-04-29T02:45:33.407Z,2.07
2019-04-29T02:48:02.130Z,1.50
2019-04-29T02:50:30.721Z,2.53
2019-04-29T02:52:59.413Z,1.60
2019-04-29T02:55:35.839Z,1.37
2019-04-29T02:58:23.907Z,1.40
2019-04-29T03:01:14.969Z,1.30
2019-04-29T03:04:03.213Z,1.30
2019-04-29T03:06:32.037Z,1.10
2019-04-29T03:09:00.764Z,1.30
2019-04-29T03:11:29.591Z,1.27
2019-04-29T03:13:58.286Z,1.20
2019-04-29T03:16:27.093Z,1.87
2019-04-29T03:19:00.787Z,1.37
2019-04-29T03:21:48.801Z,1.30
2019-04-29T03:24:17.644Z,1.40
2019-04-29T03:26:46.386Z,1.40
2019-04-29T03:29:24.140Z,1.70
2019-04-29T03:31:53.729Z,1.50
2019-04-29T03:34:22.639Z,1.87
2019-04-29T03:36:51.364Z,1.30
2019-04-29T03:39:20.117Z,1.33
2019-04-29T03:41:48.948Z,1.87
2019-04-29T03:44:17.709Z,1.30
2019-04-29T03:46:46.448Z,1.50
2019-04-29T03:49:15.170Z,2.40
2019-04-29T03:51:44.035Z,1.57
2019-04-29T03:54:12.663Z,1.50
2019-04-29T03:56:42.296Z,1.50
2019-04-29T03:59:11.055Z,1.60
2019-04-29T04:02:05.308Z,1.43
2019-04-29T04:05:02.512Z,1.70
2019-04-29T04:07:53.946Z,1.50
2019-04-29T04:10:23.031Z,2.10
2019-04-29T04:12:51.780Z,1.50
2019-04-29T04:15:20.795Z,1.50
2019-04-29T04:18:09.958Z,1.60
2019-04-29T04:20:38.627Z,1.40
2019-04-29T04:23:07.445Z,1.30
2019-04-29T04:25:37.355Z,1.53
2019-04-29T04:28:07.162Z,1.43
2019-04-29T04:30:35.877Z,1.50
2019-04-29T04:33:04.769Z,1.40
2019-04-29T04:35:36.732Z,1.57
2019-04-29T04:38:05.445Z,1.50
2019-04-29T04:40:38.800Z,2.10
2019-04-29T04:43:07.689Z,1.60
2019-04-29T04:45:36.429Z,1.93
2019-04-29T04:48:05.400Z,1.77
2019-04-29T04:50:37.855Z,2.07
2019-04-29T04:53:12.859Z,1.70
2019-04-29T04:55:44.384Z,1.60
2019-04-29T04:58:13.074Z,1.90
2019-04-29T05:00:42.236Z,2.10
2019-04-29T05:03:11.256Z,1.60
2019-04-29T05:05:42.580Z,1.73
2019-04-29T05:08:10.319Z,3.17
2019-04-29T05:10:38.938Z,1.77
2019-04-29T05:13:07.772Z,1.73
2019-04-29T05:15:36.433Z,1.53
2019-04-29T05:18:05.323Z,1.87
2019-04-29T05:20:34.166Z,3.63
2019-04-29T05:23:02.845Z,1.90
2019-04-29T05:25:32.786Z,5.40
2019-04-29T05:28:01.767Z,2.47
2019-04-29T05:30:30.718Z,2.03
2019-04-29T05:32:59.586Z,2.40
2019-04-29T05:35:40.359Z,2.23
2019-04-29T05:38:20.193Z,1.80
2019-04-29T05:40:50.559Z,2.87
2019-04-29T05:43:27.126Z,3.27
2019-04-29T05:46:17.488Z,2.33
2019-04-29T05:48:43.821Z,1.77
2019-04-29T05:51:50.121Z,2.47
2019-04-29T05:54:19.031Z,2.37
2019-04-29T05:56:47.540Z,2.13
2019-04-29T05:59:17.288Z,2.10
2019-04-29T06:01:47.138Z,2.07
2019-04-29T06:04:18.257Z,2.67
2019-04-29T06:06:47.039Z,2.00
2019-04-29T06:09:16.626Z,1.73
2019-04-29T06:11:46.349Z,1.70
2019-04-29T06:14:15.062Z,2.53
2019-04-29T06:16:43.790Z,1.90
2019-04-29T06:19:12.609Z,2.00
2019-04-29T06:21:41.362Z,2.03
2019-04-29T06:24:10.168Z,2.10
2019-04-29T06:26:38.828Z,1.97
2019-04-29T06:29:07.444Z,2.53
2019-04-29T06:31:36.186Z,4.00
2019-04-29T06:34:06.406Z,2.80
2019-04-29T06:36:35.320Z,2.30
2019-04-29T06:39:06.366Z,3.07
2019-04-29T06:41:35.150Z,2.57
2019-04-29T06:44:06.682Z,2.40
2019-04-29T06:46:34.482Z,2.60
2019-04-29T06:49:10.198Z,2.27
2019-04-29T06:51:33.711Z,2.20
2019-04-29T06:54:02.438Z,3.47
2019-04-29T06:56:31.106Z,2.70
2019-04-29T06:58:59.966Z,2.63
2019-04-29T07:01:28.631Z,2.40
2019-04-29T07:03:59.867Z,3.20
2019-04-29T07:06:28.513Z,2.47
2019-04-29T07:08:57.163Z,2.90
2019-04-29T07:11:25.617Z,3.37
2019-04-29T07:13:57.704Z,3.20
2019-04-29T07:16:31.615Z,3.63
2019-04-29T07:18:57.770Z,4.30
2019-04-29T07:21:26.574Z,3.83
2019-04-29T07:23:55.454Z,2.97
2019-04-29T07:26:24.117Z,3.27
2019-04-29T07:28:55.785Z,2.80
2019-04-29T07:31:23.355Z,3.73
2019-04-29T07:33:53.693Z,2.90
2019-04-29T07:36:23.932Z,2.77
2019-04-29T07:38:56.721Z,2.40
2019-04-29T07:41:23.337Z,2.30
2019-04-29T07:43:51.930Z,4.63
2019-04-29T07:46:56.044Z,3.13
2019-04-29T07:49:17.170Z,2.57
2019-04-29T07:51:44.538Z,2.50
2019-04-29T07:54:16.017Z,2.67
2019-04-29T07:56:43.793Z,2.90
2019-04-29T07:59:12.627Z,2.27
2019-04-29T08:01:41.261Z,2.30
2019-04-29T08:04:09.996Z,3.23
2019-04-29T08:06:42.891Z,2.57
2019-04-29T08:09:09.836Z,2.10
2019-04-29T08:11:38.616Z,2.27
2019-04-29T08:14:07.209Z,3.10
2019-04-29T08:16:35.955Z,3.23
2019-04-29T08:19:05.113Z,5.40
2019-04-29T08:21:34.025Z,4.33
2019-04-29T08:24:02.821Z,4.57
2019-04-29T08:26:33.577Z,2.57
2019-04-29T08:29:02.027Z,2.40
2019-04-29T08:31:30.927Z,2.60
2019-04-29T08:33:59.674Z,3.53
2019-04-29T08:36:28.426Z,4.10
2019-04-29T08:39:07.949Z,4.03
2019-04-29T08:41:29.828Z,4.50
2019-04-29T08:44:26.766Z,4.00
2019-04-29T08:47:17.653Z,4.30
2019-04-29T08:49:46.364Z,3.83
2019-04-29T08:52:16.082Z,3.20
2019-04-29T08:54:44.758Z,3.10
2019-04-29T08:57:13.542Z,3.23
2019-04-29T08:59:42.072Z,3.70
2019-04-29T09:02:11.465Z,3.23
2019-04-29T09:04:52.727Z,2.90
2019-04-29T09:07:12.773Z,2.90
2019-04-29T09:09:41.102Z,3.10
2019-04-29T09:12:09.672Z,2.83
2019-04-29T09:14:38.351Z,3.00
2019-04-29T09:17:19.782Z,2.70
2019-04-29T09:19:39.454Z,2.40
2019-04-29T09:22:10.314Z,2.60
2019-04-29T09:24:43.565Z,2.40
2019-04-29T09:27:16.151Z,2.60
2019-04-29T09:29:46.522Z,2.47
2019-04-29T09:32:15.575Z,2.80
2019-04-29T09:34:44.140Z,2.43
2019-04-29T09:37:12.787Z,2.73
2019-04-29T09:39:44.077Z,2.60
2019-04-29T09:42:35.930Z,2.37
2019-04-29T09:45:24.614Z,2.50
2019-04-29T09:47:53.308Z,2.87
2019-04-29T09:50:21.832Z,2.73
2019-04-29T09:52:50.657Z,3.53
2019-04-29T09:55:20.690Z,2.70
2019-04-29T09:57:49.397Z,3.77
2019-04-29T10:00:40.843Z,2.80
2019-04-29T10:03:15.811Z,3.87
2019-04-29T10:05:47.324Z,3.00
2019-04-29T10:08:16.154Z,3.00
2019-04-29T10:10:45.244Z,2.70
2019-04-29T10:13:14.020Z,3.37
2019-04-29T10:16:02.186Z,2.67
2019-04-29T10:18:39.261Z,2.40
2019-04-29T10:21:10.259Z,2.70
2019-04-29T10:23:39.160Z,3.47
2019-04-29T10:26:07.961Z,3.10
2019-04-29T10:28:43.557Z,6.70
2019-04-29T10:31:12.525Z,2.80
2019-04-29T10:33:41.182Z,2.73
2019-04-29T10:36:10.072Z,3.27
2019-04-29T10:38:40.473Z,2.90
2019-04-29T10:41:23.338Z,3.77
2019-04-29T10:44:26.310Z,4.53
2019-04-29T10:47:10.781Z,3.70
2019-04-29T10:49:53.849Z,3.13
2019-04-29T10:52:22.679Z,2.97
2019-04-29T10:54:55.230Z,3.53
2019-04-29T10:57:23.757Z,3.13
2019-04-29T10:59:57.290Z,3.00
2019-04-29T11:02:49.391Z,3.37
2019-04-29T11:05:33.915Z,3.47
2019-04-29T11:08:21.526Z,3.83
2019-04-29T11:10:50.444Z,7.00
2019-04-29T11:13:19.255Z,3.20
2019-04-29T11:15:49.379Z,3.77
2019-04-29T11:18:23.310Z,4.30
2019-04-29T11:20:53.697Z,3.50
2019-04-29T11:23:38.079Z,4.27
2019-04-29T11:26:26.422Z,3.87
2019-04-29T11:28:56.858Z,4.70
2019-04-29T11:31:25.810Z,4.13
2019-04-29T11:34:16.003Z,4.63
2019-04-29T11:36:44.649Z,4.40
2019-04-29T11:39:15.508Z,4.97
2019-04-29T11:41:59.654Z,3.73
2019-04-29T11:44:27.968Z,5.10
2019-04-29T11:46:57.088Z,4.10
2019-04-29T11:49:40.371Z,4.83
2019-04-29T11:52:10.339Z,4.80
2019-04-29T11:54:39.638Z,4.77
2019-04-29T11:57:12.195Z,5.87
2019-04-29T11:59:47.665Z,4.90
2019-04-29T12:02:44.091Z,4.70
2019-04-29T12:05:20.068Z,4.40
2019-04-29T12:07:48.882Z,5.17
2019-04-29T12:10:17.607Z,5.47
2019-04-29T12:12:47.766Z,5.37
2019-04-29T12:15:45.119Z,5.13
2019-04-29T12:18:16.077Z,5.37
2019-04-29T12:21:07.111Z,5.57
2019-04-29T12:23:37.003Z,5.13
2019-04-29T12:26:06.627Z,4.77
2019-04-29T12:28:37.944Z,4.97
2019-04-29T12:31:14.175Z,4.83
2019-04-29T12:33:51.458Z,4.70
2019-04-29T12:36:20.309Z,4.80
2019-04-29T12:39:07.629Z,5.20
2019-04-29T12:42:00.571Z,4.47
2019-04-29T12:44:35.773Z,4.50
2019-04-29T12:47:26.664Z,4.90
2019-04-29T12:49:55.662Z,6.23
2019-04-29T12:52:24.243Z,5.00
2019-04-29T12:54:53.141Z,5.53
2019-04-29T12:57:23.650Z,5.63
2019-04-29T12:59:54.556Z,5.33
2019-04-29T13:02:43.941Z,5.07
2019-04-29T13:05:26.346Z,5.63
2019-04-29T13:08:03.276Z,6.27
2019-04-29T13:10:42.546Z,4.57
2019-04-29T13:13:09.767Z,4.77
2019-04-29T13:15:49.750Z,4.43
2019-04-29T13:18:25.915Z,4.80
2019-04-29T13:20:54.458Z,4.90
2019-04-29T13:23:33.672Z,6.60
2019-04-29T13:25:56.024Z,5.00
2019-04-29T13:28:30.367Z,4.57
2019-04-29T13:30:56.857Z,7.23
2019-04-29T13:33:25.708Z,6.27
2019-04-29T13:35:54.485Z,4.57
2019-04-29T13:38:24.301Z,3.93
2019-04-29T13:41:11.428Z,4.87
2019-04-29T13:43:25.990Z,5.63
2019-04-29T13:46:05.369Z,3.50
2019-04-29T13:49:13.942Z,3.77
2019-04-29T13:51:42.355Z,5.13
2019-04-29T13:54:11.018Z,3.20
2019-04-29T13:56:55.471Z,3.53
2019-04-29T13:59:12.655Z,2.97
2019-04-29T14:02:07.354Z,3.57
2019-04-29T14:04:41.538Z,4.07
2019-04-29T14:07:10.183Z,4.17
2019-04-29T14:09:39.224Z,3.33
2019-04-29T14:12:46.336Z,3.10
2019-04-29T14:14:39.881Z,3.10
2019-04-29T14:17:25.241Z,3.47
2019-04-29T14:19:51.913Z,3.00
2019-04-29T14:22:22.342Z,2.70
2019-04-29T14:24:51.169Z,2.93
2019-04-29T14:27:24.950Z,2.87
2019-04-29T14:29:51.499Z,3.73
2019-04-29T14:32:33.204Z,3.37
2019-04-29T14:35:00.416Z,7.30
2019-04-29T14:37:29.297Z,2.83
2019-04-29T14:39:57.859Z,3.93
2019-04-29T14:42:38.943Z,3.70
2019-04-29T14:45:26.647Z,3.90
2019-04-29T14:48:17.463Z,3.07
2019-04-29T14:50:49.633Z,3.90
2019-04-29T14:53:19.424Z,3.93
2019-04-29T14:55:47.627Z,4.67
2019-04-29T14:58:16.383Z,3.90
2019-04-29T15:01:03.732Z,3.00
2019-04-29T15:03:35.138Z,3.73
2019-04-29T15:06:04.019Z,2.60
2019-04-29T15:08:36.232Z,2.60
2019-04-29T15:11:08.936Z,3.87
2019-04-29T15:13:38.639Z,3.37
2019-04-29T15:16:15.554Z,2.67
2019-04-29T15:19:12.491Z,3.50
2019-04-29T15:21:53.160Z,4.43
2019-04-29T15:24:27.331Z,4.03
2019-04-29T15:26:57.857Z,3.27
2019-04-29T15:29:26.560Z,3.40
2019-04-29T15:31:55.090Z,4.23
2019-04-29T15:34:24.068Z,2.33
2019-04-29T15:36:52.741Z,3.83
2019-04-29T15:39:24.968Z,2.07
2019-04-29T15:41:54.327Z,1.90
2019-04-29T15:44:23.317Z,3.53
2019-04-29T15:46:52.167Z,2.83
2019-04-29T15:49:24.835Z,4.90
2019-04-29T15:51:51.109Z,2.20
2019-04-29T15:54:19.753Z,2.50
2019-04-29T15:56:48.577Z,2.60
2019-04-29T15:59:17.611Z,2.90
2019-04-29T16:01:46.546Z,1.80
2019-04-29T16:04:21.343Z,2.07
2019-04-29T16:07:01.428Z,4.43
2019-04-29T16:09:51.776Z,3.37
2019-04-29T16:12:22.300Z,3.97
2019-04-29T16:14:52.502Z,3.47
2019-04-29T16:17:21.184Z,2.20
2019-04-29T16:19:50.080Z,2.47
2019-04-29T16:24:49.279Z,2.23
2019-04-29T16:27:18.148Z,2.50
2019-04-29T16:29:51.760Z,2.57
2019-04-29T16:32:27.476Z,2.37
2019-04-29T16:34:56.300Z,3.63
2019-04-29T16:37:32.005Z,3.83
2019-04-29T16:39:59.698Z,3.43
2019-04-29T16:42:38.169Z,3.27
2019-04-29T16:45:12.105Z,3.50
2019-04-29T16:47:37.579Z,3.33
2019-04-29T16:50:06.443Z,3.33
2019-04-29T16:52:35.318Z,3.90
2019-04-29T16:55:05.913Z,4.77
2019-04-29T16:57:34.855Z,4.30
2019-04-29T17:00:06.326Z,6.63
2019-04-29T17:02:35.654Z,3.10
2019-04-29T17:05:05.166Z,3.50
2019-04-29T17:07:36.520Z,3.70
2019-04-29T17:10:27.125Z,5.33
2019-04-29T17:12:56.062Z,5.77
2019-04-29T17:15:26.391Z,5.57
2019-04-29T17:17:55.211Z,4.63
2019-04-29T17:20:23.969Z,4.03
2019-04-29T17:22:52.748Z,4.27
2019-04-29T17:25:21.997Z,5.00
2019-04-29T17:28:12.085Z,5.90
2019-04-29T17:31:14.360Z,8.00
2019-04-29T17:34:03.215Z,4.80
2019-04-29T17:35:18.988Z,2.07
2019-04-29T17:36:32.279Z,5.20
2019-04-29T17:39:01.231Z,8.00
2019-04-29T17:41:31.657Z,4.13
2019-04-29T17:44:27.247Z,3.93
2019-04-29T17:47:07.101Z,5.13
2019-04-29T17:49:44.142Z,7.57
2019-04-29T17:52:25.818Z,5.33
2019-04-29T17:54:57.636Z,4.50
2019-04-29T17:57:45.690Z,4.67
2019-04-29T18:00:42.166Z,4.83
2019-04-29T18:03:23.112Z,4.33
2019-04-29T18:06:08.393Z,5.73
2019-04-29T18:08:48.484Z,5.00
2019-04-29T18:11:17.351Z,5.53
2019-04-29T18:13:46.049Z,7.87
2019-04-29T18:16:18.912Z,7.20
2019-04-29T18:18:58.519Z,8.20
2019-04-29T18:21:49.782Z,11.33
2019-04-29T18:24:45.321Z,8.17
2019-04-29T18:27:16.713Z,6.43
2019-04-29T18:29:45.837Z,6.07
2019-04-29T18:32:15.536Z,5.53
2019-04-29T18:34:45.300Z,7.30
2019-04-29T18:37:15.274Z,5.83
2019-04-29T18:39:45.280Z,6.87
2019-04-29T18:42:13.871Z,7.20
2019-04-29T18:44:54.977Z,7.60
2019-04-29T18:47:22.059Z,8.87
2019-04-29T18:49:45.412Z,8.73
2019-04-29T18:52:23.834Z,8.97
2019-04-29T18:54:45.055Z,10.10
2019-04-29T18:57:27.410Z,8.00
2019-04-29T18:59:45.797Z,7.33
2019-04-29T19:02:14.910Z,8.97
2019-04-29T19:04:58.880Z,7.03
2019-04-29T19:07:31.722Z,6.93
2019-04-29T19:09:58.078Z,6.93
2019-04-29T19:12:26.940Z,8.20
2019-04-29T19:14:59.729Z,8.03
2019-04-29T19:17:26.002Z,8.37
2019-04-29T19:19:55.338Z,8.10
2019-04-29T19:22:25.916Z,8.60
2019-04-29T19:24:55.803Z,7.97
2019-04-29T19:27:25.964Z,8.17
2019-04-29T19:29:55.073Z,8.33
2019-04-29T19:32:25.340Z,8.23
2019-04-29T19:34:58.225Z,10.53
2019-04-29T19:37:28.501Z,8.53
2019-04-29T19:39:58.282Z,7.67
2019-04-29T19:42:30.984Z,9.80
2019-04-29T19:44:57.166Z,8.00
2019-04-29T19:47:28.028Z,7.57
2019-04-29T19:49:56.517Z,8.13
2019-04-29T19:52:28.728Z,7.93
2019-04-29T19:54:57.383Z,8.10
2019-04-29T19:57:26.402Z,8.83
2019-04-29T19:59:56.607Z,8.43
2019-04-29T20:02:26.245Z,8.43
2019-04-29T20:05:23.257Z,10.57
2019-04-29T20:07:50.809Z,8.50
2019-04-29T20:10:21.112Z,8.70
2019-04-29T20:12:53.159Z,9.20
2019-04-29T20:15:22.444Z,8.80
2019-04-29T20:18:23.780Z,7.80
2019-04-29T20:21:08.926Z,9.13
2019-04-29T20:23:38.875Z,8.90
2019-04-29T20:26:13.885Z,9.60
2019-04-29T20:28:35.949Z,10.97
2019-04-29T20:31:16.509Z,10.77
2019-04-29T20:33:35.784Z,9.87
2019-04-29T20:36:06.657Z,10.13
2019-04-29T20:38:38.851Z,9.23
2019-04-29T20:41:08.116Z,9.30
2019-04-29T20:43:36.868Z,8.57
2019-04-29T20:46:05.802Z,8.33
2019-04-29T20:48:37.146Z,8.37
2019-04-29T20:51:13.109Z,8.83
2019-04-29T20:53:42.638Z,9.20
2019-04-29T20:56:13.080Z,8.50
2019-04-29T20:58:44.261Z,10.00
2019-04-29T21:01:18.977Z,11.53
2019-04-29T21:03:52.170Z,10.70
2019-04-29T21:06:19.240Z,10.77
2019-04-29T21:08:51.021Z,11.93
2019-04-29T21:11:25.916Z,10.10
2019-04-29T21:14:18.029Z,9.53
2019-04-29T21:16:48.277Z,8.73
2019-04-29T21:19:17.029Z,7.67
2019-04-29T21:21:47.505Z,8.63
2019-04-29T21:24:18.556Z,9.60
2019-04-29T21:26:47.014Z,7.83
2019-04-29T21:29:19.262Z,9.43
2019-04-29T21:31:50.797Z,10.20
2019-04-29T21:34:17.983Z,9.37
2019-04-29T21:37:06.580Z,9.67
2019-04-29T21:39:58.812Z,9.10
2019-04-29T21:42:47.332Z,9.37
2019-04-29T21:45:17.584Z,12.27
2019-04-29T21:47:52.945Z,9.50
2019-04-29T21:50:16.998Z,10.53
2019-04-29T21:52:46.930Z,12.03
2019-04-29T21:55:16.092Z,11.40
2019-04-29T21:57:45.177Z,11.00
2019-04-29T22:00:19.763Z,10.10
2019-04-29T22:02:49.187Z,9.90
2019-04-29T22:05:18.676Z,10.47
2019-04-29T22:07:47.614Z,8.93
2019-04-29T22:10:20.041Z,9.23
2019-04-29T22:12:50.872Z,9.67
2019-04-29T22:15:29.887Z,9.40
2019-04-29T22:17:56.631Z,9.30
2019-04-29T22:20:19.553Z,10.00
2019-04-29T22:22:48.382Z,9.60
2019-04-29T22:25:17.229Z,9.57
2019-04-29T22:27:46.042Z,9.20
2019-04-29T22:30:18.555Z,9.20
2019-04-29T22:32:51.857Z,10.77
2019-04-29T22:35:18.599Z,9.80
2019-04-29T22:37:48.333Z,10.67
2019-04-29T22:40:17.393Z,10.20
2019-04-29T22:42:52.856Z,10.63
2019-04-29T22:45:22.026Z,11.63
2019-04-29T22:47:54.360Z,10.13
2019-04-29T22:50:21.468Z,11.00
2019-04-29T22:52:50.180Z,10.37
2019-04-29T22:55:18.947Z,11.60
2019-04-29T22:57:47.584Z,10.50
2019-04-29T23:00:18.112Z,11.50
2019-04-29T23:02:46.586Z,10.63
2019-04-29T23:05:15.176Z,11.20
2019-04-29T23:07:45.604Z,11.10
2019-04-29T23:10:24.158Z,11.90
2019-04-29T23:12:49.372Z,11.97
2019-04-29T23:15:23.571Z,11.70
2019-04-29T23:17:50.897Z,11.90
2019-04-29T23:20:37.722Z,13.03
2019-04-29T23:23:11.466Z,12.97
2019-04-29T23:25:45.591Z,12.73
2019-04-29T23:28:14.549Z,13.20
2019-04-29T23:30:47.872Z,11.73
2019-04-29T23:33:15.111Z,12.80
2019-04-29T23:35:45.145Z,12.37
2019-04-29T23:38:15.462Z,12.90
2019-04-29T23:40:44.223Z,13.07
2019-04-29T23:43:13.048Z,13.00
2019-04-29T23:45:41.682Z,12.03
2019-04-29T23:48:10.320Z,12.40
2019-04-29T23:50:39.084Z,12.30
2019-04-29T23:53:07.834Z,12.93
2019-04-29T23:55:36.359Z,12.43
2019-04-29T23:58:21.926Z,12.37
